createdAt,value
2019-01-10T00:01:05.870Z,1.66
2019-01-10T00:03:34.946Z,1.69
2019-01-10T00:06:06.035Z,1.68
2019-01-10T00:08:35.172Z,1.70
2019-01-10T00:11:05.928Z,1.76
2019-01-10T00:13:34.949Z,1.71
2019-01-10T00:16:03.976Z,1.79
2019-01-10T00:18:33.004Z,1.84
2019-01-10T00:21:02.081Z,1.92
2019-01-10T00:23:31.141Z,1.73
2019-01-10T00:26:00.243Z,1.60
2019-01-10T00:28:29.282Z,1.62
2019-01-10T00:30:58.329Z,1.67
2019-01-10T00:33:27.389Z,1.71
2019-01-10T00:35:56.436Z,1.78
2019-01-10T00:38:25.481Z,1.70
2019-01-10T00:40:54.556Z,1.73
2019-01-10T00:43:23.599Z,1.74
2019-01-10T00:45:52.678Z,1.63
2019-01-10T00:48:23.177Z,1.71
2019-01-10T00:50:52.290Z,1.80
2019-01-10T00:53:21.288Z,1.76
2019-01-10T00:55:50.318Z,1.79
2019-01-10T00:58:19.394Z,1.79
2019-01-10T01:00:48.428Z,1.93
2019-01-10T01:03:17.423Z,1.82
2019-01-10T01:05:46.465Z,1.86
2019-01-10T01:08:17.523Z,2.11
2019-01-10T01:10:46.585Z,2.05
2019-01-10T01:13:15.610Z,1.96
2019-01-10T01:15:44.647Z,1.85
2019-01-10T01:18:13.635Z,1.87
2019-01-10T01:20:42.695Z,1.88
2019-01-10T01:23:11.677Z,1.98
2019-01-10T01:25:40.831Z,2.02
2019-01-10T01:28:09.916Z,1.99
2019-01-10T01:30:40.007Z,2.08
2019-01-10T01:33:09.094Z,1.85
2019-01-10T01:35:38.097Z,1.71
2019-01-10T01:38:07.118Z,1.61
2019-01-10T01:40:36.137Z,1.55
2019-01-10T01:43:07.537Z,1.51
2019-01-10T01:45:36.106Z,1.63
2019-01-10T01:48:05.107Z,1.63
2019-01-10T01:50:34.119Z,1.75
2019-01-10T01:53:03.195Z,1.68
2019-01-10T01:55:32.429Z,1.58
2019-01-10T01:58:02.199Z,1.67
2019-01-10T02:00:31.491Z,1.61
2019-01-10T02:03:00.781Z,1.61
2019-01-10T02:05:30.045Z,1.65
2019-01-10T02:07:59.360Z,1.69
2019-01-10T02:10:29.151Z,1.62
2019-01-10T02:12:58.438Z,1.58
2019-01-10T02:15:27.659Z,1.46
2019-01-10T02:17:56.765Z,1.67
2019-01-10T02:20:25.906Z,1.53
2019-01-10T02:22:55.008Z,1.45
2019-01-10T02:25:23.992Z,1.65
2019-01-10T02:27:53.036Z,1.58
2019-01-10T02:30:23.858Z,1.55
2019-01-10T02:32:52.891Z,1.56
2019-01-10T02:35:22.048Z,1.57
2019-01-10T02:37:51.135Z,1.42
2019-01-10T02:40:20.409Z,1.48
2019-01-10T02:42:49.595Z,1.50
2019-01-10T02:45:20.212Z,1.50
2019-01-10T02:47:49.367Z,1.46
2019-01-10T02:50:20.666Z,1.44
2019-01-10T02:52:51.008Z,1.48
2019-01-10T02:55:20.095Z,1.48
2019-01-10T02:57:49.820Z,1.39
2019-01-10T03:00:24.945Z,1.45
2019-01-10T03:02:53.975Z,1.41
2019-01-10T03:05:24.833Z,1.42
2019-01-10T03:07:53.848Z,1.44
2019-01-10T03:10:25.817Z,1.41
2019-01-10T03:12:54.858Z,1.48
2019-01-10T03:15:23.937Z,1.46
2019-01-10T03:17:53.088Z,1.38
2019-01-10T03:20:22.926Z,1.41
2019-01-10T03:22:51.910Z,1.52
2019-01-10T03:25:21.071Z,1.46
2019-01-10T03:27:50.106Z,1.41
2019-01-10T03:30:19.659Z,1.51
2019-01-10T03:32:51.048Z,1.44
2019-01-10T03:35:20.276Z,1.31
2019-01-10T03:37:49.403Z,1.36
2019-01-10T03:40:20.410Z,1.38
2019-01-10T03:42:51.215Z,1.35
2019-01-10T03:45:21.900Z,1.46
2019-01-10T03:47:53.156Z,1.32
2019-01-10T03:50:23.836Z,1.37
2019-01-10T03:52:52.809Z,1.43
2019-01-10T03:55:21.857Z,1.42
2019-01-10T03:57:50.912Z,1.39
2019-01-10T04:00:22.053Z,1.38
2019-01-10T04:02:52.472Z,1.48
2019-01-10T04:05:21.575Z,1.36
2019-01-10T04:07:50.633Z,1.43
2019-01-10T04:10:19.715Z,1.44
2019-01-10T04:12:48.748Z,1.44
2019-01-10T04:15:18.121Z,1.66
2019-01-10T04:17:47.398Z,1.49
2019-01-10T04:20:17.888Z,1.55
2019-01-10T04:22:46.955Z,1.46
2019-01-10T04:25:16.362Z,1.67
2019-01-10T04:27:45.365Z,1.54
2019-01-10T04:30:23.152Z,1.67
2019-01-10T04:32:52.176Z,1.68
2019-01-10T04:35:21.190Z,1.58
2019-01-10T04:37:50.252Z,1.56
2019-01-10T04:40:21.571Z,1.43
2019-01-10T04:42:50.634Z,1.44
2019-01-10T04:45:19.671Z,1.55
2019-01-10T04:47:48.751Z,1.50
2019-01-10T04:50:17.748Z,1.55
2019-01-10T04:52:46.782Z,1.44
2019-01-10T04:55:15.915Z,1.46
2019-01-10T04:57:44.919Z,1.43
2019-01-10T05:00:22.535Z,1.50
2019-01-10T05:02:51.590Z,1.49
2019-01-10T05:05:20.759Z,1.44
2019-01-10T05:07:49.778Z,1.40
2019-01-10T05:10:20.060Z,1.41
2019-01-10T05:12:49.060Z,1.45
2019-01-10T05:15:18.283Z,1.42
2019-01-10T05:17:47.266Z,1.41
2019-01-10T05:20:18.453Z,1.52
2019-01-10T05:22:47.712Z,1.51
2019-01-10T05:25:16.827Z,1.51
2019-01-10T05:27:45.844Z,1.28
2019-01-10T05:30:17.962Z,1.38
2019-01-10T05:32:47.048Z,1.27
2019-01-10T05:35:16.115Z,1.35
2019-01-10T05:37:45.091Z,1.39
2019-01-10T05:40:14.150Z,1.44
2019-01-10T05:42:43.194Z,1.33
2019-01-10T05:45:13.073Z,1.50
2019-01-10T05:47:43.082Z,1.48
2019-01-10T05:50:13.625Z,1.37
2019-01-10T05:52:44.844Z,1.36
2019-01-10T05:55:16.505Z,1.57
2019-01-10T05:57:45.654Z,1.57
2019-01-10T06:00:18.834Z,1.46
2019-01-10T06:02:47.887Z,1.66
2019-01-10T06:05:16.999Z,1.63
2019-01-10T06:07:46.044Z,1.43
2019-01-10T06:10:22.244Z,1.36
2019-01-10T06:12:51.267Z,1.40
2019-01-10T06:15:20.324Z,1.39
2019-01-10T06:17:51.649Z,1.29
2019-01-10T06:20:21.660Z,1.29
2019-01-10T06:22:50.735Z,1.21
2019-01-10T06:25:21.787Z,1.36
2019-01-10T06:27:50.841Z,1.56
2019-01-10T06:30:21.905Z,1.30
2019-01-10T06:32:50.958Z,1.27
2019-01-10T06:35:20.076Z,1.31
2019-01-10T06:37:49.085Z,1.10
2019-01-10T06:40:19.752Z,1.42
2019-01-10T06:42:48.814Z,1.42
2019-01-10T06:45:18.183Z,1.45
2019-01-10T06:47:47.268Z,1.40
2019-01-10T06:50:16.927Z,1.12
2019-01-10T06:52:48.361Z,1.26
2019-01-10T06:55:17.649Z,1.04
2019-01-10T06:57:46.709Z,1.23
2019-01-10T07:00:20.753Z,1.02
2019-01-10T07:02:50.017Z,1.20
2019-01-10T07:05:19.098Z,1.30
2019-01-10T07:07:56.461Z,1.33
2019-01-10T07:10:29.105Z,1.14
2019-01-10T07:12:58.757Z,0.95
2019-01-10T07:15:27.770Z,1.17
2019-01-10T07:17:56.839Z,1.20
2019-01-10T07:20:30.118Z,1.30
2019-01-10T07:22:59.182Z,1.34
2019-01-10T07:25:29.173Z,1.32
2019-01-10T07:27:58.262Z,1.13
2019-01-10T07:30:36.013Z,1.18
2019-01-10T07:33:01.291Z,1.44
2019-01-10T07:35:30.378Z,1.42
2019-01-10T07:37:59.464Z,1.47
2019-01-10T07:40:29.687Z,1.24
2019-01-10T07:42:58.760Z,1.20
2019-01-10T07:45:29.877Z,1.18
2019-01-10T07:47:58.948Z,1.40
2019-01-10T07:50:36.233Z,1.72
2019-01-10T07:53:07.363Z,1.94
2019-01-10T07:55:36.594Z,1.85
2019-01-10T07:58:07.649Z,1.93
2019-01-10T08:00:48.136Z,2.16
2019-01-10T08:03:19.623Z,1.91
2019-01-10T08:05:48.687Z,2.11
2019-01-10T08:08:17.783Z,2.22
2019-01-10T08:10:48.508Z,2.28
2019-01-10T08:13:19.575Z,1.75
2019-01-10T08:15:48.428Z,1.88
2019-01-10T08:18:17.571Z,1.90
2019-01-10T08:20:46.742Z,2.08
2019-01-10T08:23:15.786Z,1.99
2019-01-10T08:25:44.840Z,1.82
2019-01-10T08:28:15.075Z,1.57
2019-01-10T08:30:44.063Z,1.74
2019-01-10T08:33:15.051Z,1.61
2019-01-10T08:35:44.258Z,1.59
2019-01-10T08:38:13.634Z,1.76
2019-01-10T08:40:42.725Z,1.91
2019-01-10T08:43:11.913Z,1.97
2019-01-10T08:45:42.327Z,2.03
2019-01-10T08:48:11.420Z,2.09
2019-01-10T08:50:43.867Z,1.73
2019-01-10T08:53:14.318Z,1.81
2019-01-10T08:55:43.520Z,1.67
2019-01-10T08:58:12.764Z,1.65
2019-01-10T09:00:41.883Z,1.62
2019-01-10T09:03:11.947Z,1.79
2019-01-10T09:05:41.253Z,1.50
2019-01-10T09:08:12.609Z,1.42
2019-01-10T09:10:41.781Z,1.57
2019-01-10T09:13:11.034Z,1.71
2019-01-10T09:15:40.200Z,1.55
2019-01-10T09:18:09.325Z,1.64
2019-01-10T09:20:45.919Z,1.67
2019-01-10T09:23:16.444Z,1.81
2019-01-10T09:25:45.993Z,1.98
2019-01-10T09:28:15.812Z,2.25
2019-01-10T09:30:45.025Z,1.73
2019-01-10T09:33:16.598Z,1.87
2019-01-10T09:35:45.917Z,2.03
2019-01-10T09:38:17.272Z,1.92
2019-01-10T09:40:47.661Z,1.94
2019-01-10T09:43:18.117Z,2.11
2019-01-10T09:45:48.388Z,2.05
2019-01-10T09:48:17.635Z,2.18
2019-01-10T09:50:46.927Z,2.64
2019-01-10T09:53:16.119Z,2.15
2019-01-10T09:55:45.465Z,2.26
2019-01-10T09:58:16.307Z,2.38
2019-01-10T10:00:45.635Z,2.56
2019-01-10T10:03:14.937Z,2.55
2019-01-10T10:05:44.261Z,2.08
2019-01-10T10:08:15.254Z,2.08
2019-01-10T10:10:44.493Z,2.33
2019-01-10T10:13:13.598Z,2.63
2019-01-10T10:15:52.066Z,2.27
2019-01-10T10:18:13.677Z,2.93
2019-01-10T10:20:45.719Z,2.64
2019-01-10T10:23:16.029Z,2.59
2019-01-10T10:25:45.202Z,2.94
2019-01-10T10:28:14.557Z,3.14
2019-01-10T10:30:45.013Z,3.23
2019-01-10T10:33:14.229Z,2.51
2019-01-10T10:35:46.453Z,2.58
2019-01-10T10:38:15.741Z,2.43
2019-01-10T10:40:45.032Z,2.53
2019-01-10T10:43:14.089Z,2.52
2019-01-10T10:45:47.005Z,3.02
2019-01-10T10:48:16.170Z,2.84
2019-01-10T10:50:45.300Z,2.58
2019-01-10T10:53:14.382Z,2.65
2019-01-10T10:55:43.483Z,2.82
2019-01-10T10:58:12.530Z,2.48
2019-01-10T11:00:41.618Z,2.44
2019-01-10T11:03:10.667Z,2.55
2019-01-10T11:05:41.613Z,2.33
2019-01-10T11:08:10.713Z,2.22
2019-01-10T11:10:39.905Z,2.19
2019-01-10T11:13:13.494Z,2.06
2019-01-10T11:15:43.598Z,2.18
2019-01-10T11:18:12.639Z,2.26
2019-01-10T11:20:44.282Z,2.19
2019-01-10T11:23:14.799Z,2.17
2019-01-10T11:25:44.040Z,2.20
2019-01-10T11:28:13.401Z,2.07
2019-01-10T11:30:42.702Z,2.09
2019-01-10T11:33:11.900Z,2.18
2019-01-10T11:35:41.145Z,2.18
2019-01-10T11:38:11.684Z,2.21
2019-01-10T11:40:43.230Z,2.05
2019-01-10T11:43:13.698Z,2.12
2019-01-10T11:45:46.239Z,1.97
2019-01-10T11:48:15.572Z,1.89
2019-01-10T11:50:44.785Z,2.08
2019-01-10T11:53:15.555Z,2.20
2019-01-10T11:55:44.580Z,2.55
2019-01-10T11:58:15.893Z,2.19
2019-01-10T12:00:44.956Z,2.30
2019-01-10T12:03:14.032Z,2.20
2019-01-10T12:05:48.265Z,1.97
2019-01-10T12:08:17.199Z,2.03
2019-01-10T12:10:47.479Z,2.10
2019-01-10T12:13:17.460Z,1.89
2019-01-10T12:15:48.333Z,1.96
2019-01-10T12:18:19.272Z,1.84
2019-01-10T12:20:48.334Z,1.83
2019-01-10T12:23:18.445Z,1.94
2019-01-10T12:25:47.450Z,1.95
2019-01-10T12:28:16.539Z,2.08
2019-01-10T12:30:45.621Z,2.03
2019-01-10T12:33:15.873Z,2.03
2019-01-10T12:35:45.056Z,2.13
2019-01-10T12:38:14.197Z,2.24
2019-01-10T12:40:45.606Z,2.31
2019-01-10T12:43:16.809Z,2.36
2019-01-10T12:45:47.153Z,2.18
2019-01-10T12:48:16.304Z,2.22
2019-01-10T12:50:46.641Z,2.38
2019-01-10T12:53:15.720Z,2.37
2019-01-10T12:55:46.994Z,2.36
2019-01-10T12:58:16.256Z,2.60
2019-01-10T13:00:47.632Z,2.37
2019-01-10T13:03:16.823Z,2.22
2019-01-10T13:05:45.976Z,2.01
2019-01-10T13:08:15.035Z,2.21
2019-01-10T13:10:44.024Z,2.20
2019-01-10T13:13:13.141Z,2.13
2019-01-10T13:15:42.791Z,1.99
2019-01-10T13:18:11.947Z,2.13
2019-01-10T13:20:43.101Z,2.18
2019-01-10T13:23:12.248Z,2.13
2019-01-10T13:25:42.150Z,1.94
2019-01-10T13:28:11.217Z,2.16
2019-01-10T13:30:45.443Z,2.34
2019-01-10T13:33:16.400Z,2.37
2019-01-10T13:35:46.006Z,2.15
2019-01-10T13:38:15.173Z,2.10
2019-01-10T13:40:45.512Z,2.06
2019-01-10T13:43:17.697Z,2.09
2019-01-10T13:45:46.787Z,1.97
2019-01-10T13:48:15.869Z,2.05
2019-01-10T13:50:46.384Z,1.88
2019-01-10T13:53:15.456Z,1.99
2019-01-10T13:55:44.534Z,2.00
2019-01-10T13:58:13.574Z,2.04
2019-01-10T14:00:42.631Z,2.09
2019-01-10T14:03:11.880Z,2.21
2019-01-10T14:05:40.925Z,2.23
2019-01-10T14:08:10.371Z,2.17
2019-01-10T14:10:39.416Z,2.28
2019-01-10T14:13:08.468Z,1.99
2019-01-10T14:15:38.237Z,1.93
2019-01-10T14:18:07.483Z,1.92
2019-01-10T14:20:36.551Z,2.19
2019-01-10T14:23:05.723Z,1.99
2019-01-10T14:25:35.799Z,1.96
2019-01-10T14:28:04.871Z,1.95
2019-01-10T14:30:35.685Z,1.96
2019-01-10T14:33:06.826Z,1.94
2019-01-10T14:35:36.300Z,1.82
2019-01-10T14:38:05.619Z,1.99
2019-01-10T14:40:36.747Z,1.85
2019-01-10T14:43:07.060Z,1.80
2019-01-10T14:45:38.258Z,1.88
2019-01-10T14:48:07.702Z,1.88
2019-01-10T14:50:38.117Z,1.81
2019-01-10T14:53:07.339Z,1.95
2019-01-10T14:55:37.257Z,1.82
2019-01-10T14:58:06.441Z,1.85
2019-01-10T15:00:35.716Z,1.87
2019-01-10T15:03:16.754Z,1.74
2019-01-10T15:05:53.287Z,1.77
2019-01-10T15:08:22.732Z,1.95
2019-01-10T15:11:12.593Z,1.98
2019-01-10T15:13:50.209Z,1.93
2019-01-10T15:16:24.901Z,1.74
2019-01-10T15:19:05.103Z,1.78
2019-01-10T15:21:41.651Z,1.75
2019-01-10T15:24:16.936Z,1.88
2019-01-10T15:26:57.845Z,2.07
2019-01-10T15:29:48.392Z,1.82
2019-01-10T15:32:21.103Z,1.80
2019-01-10T15:34:53.574Z,1.83
2019-01-10T15:37:22.679Z,1.82
2019-01-10T15:39:51.688Z,1.81
2019-01-10T15:42:26.619Z,1.87
2019-01-10T15:44:56.236Z,1.68
2019-01-10T15:47:29.899Z,1.95
2019-01-10T15:50:00.483Z,1.68
2019-01-10T15:52:30.917Z,1.64
2019-01-10T15:55:01.871Z,1.72
2019-01-10T15:57:31.693Z,1.82
2019-01-10T16:00:03.663Z,1.79
2019-01-10T16:02:34.517Z,2.04
2019-01-10T16:05:03.825Z,1.84
2019-01-10T16:07:33.324Z,1.89
2019-01-10T16:10:04.334Z,2.13
2019-01-10T16:12:36.973Z,1.72
2019-01-10T16:15:08.052Z,1.68
2019-01-10T16:17:38.736Z,1.63
2019-01-10T16:20:08.829Z,1.64
2019-01-10T16:22:39.297Z,1.66
2019-01-10T16:25:09.257Z,1.57
2019-01-10T16:27:38.334Z,1.54
2019-01-10T16:30:11.549Z,1.52
2019-01-10T16:32:41.785Z,1.47
2019-01-10T16:35:10.784Z,1.59
2019-01-10T16:37:39.837Z,1.64
2019-01-10T16:40:09.424Z,1.67
2019-01-10T16:42:38.475Z,1.54
2019-01-10T16:45:10.485Z,1.56
2019-01-10T16:47:39.510Z,1.63
2019-01-10T16:50:11.755Z,1.70
2019-01-10T16:52:42.383Z,1.57
2019-01-10T16:55:11.639Z,1.66
2019-01-10T16:57:42.526Z,1.55
2019-01-10T17:00:18.721Z,1.48
2019-01-10T17:02:48.916Z,1.68
2019-01-10T17:05:17.994Z,1.71
2019-01-10T17:07:47.110Z,1.57
2019-01-10T17:10:16.185Z,1.48
2019-01-10T17:12:46.318Z,1.48
2019-01-10T17:15:15.354Z,1.42
2019-01-10T17:17:44.376Z,1.44
2019-01-10T17:20:16.729Z,1.46
2019-01-10T17:22:46.790Z,1.55
2019-01-10T17:25:15.842Z,1.50
2019-01-10T17:27:44.876Z,1.77
2019-01-10T17:30:17.487Z,1.63
2019-01-10T17:32:47.886Z,1.55
2019-01-10T17:35:18.898Z,1.50
2019-01-10T17:37:47.947Z,1.56
2019-01-10T17:40:19.528Z,1.65
2019-01-10T17:42:50.369Z,1.45
2019-01-10T17:45:21.021Z,1.38
2019-01-10T17:47:50.003Z,1.39
2019-01-10T17:50:19.378Z,1.40
2019-01-10T17:52:48.419Z,1.53
2019-01-10T17:55:17.470Z,1.40
2019-01-10T17:57:46.537Z,1.47
2019-01-10T18:00:24.060Z,1.43
2019-01-10T18:02:54.244Z,1.54
2019-01-10T18:05:26.869Z,1.52
2019-01-10T18:07:55.983Z,1.40
2019-01-10T18:10:25.100Z,1.53
2019-01-10T18:12:55.603Z,1.43
2019-01-10T18:15:25.006Z,1.30
2019-01-10T18:17:54.074Z,1.23
2019-01-10T18:20:28.628Z,1.19
2019-01-10T18:22:59.181Z,1.37
2019-01-10T18:25:28.173Z,1.24
2019-01-10T18:27:57.166Z,1.12
2019-01-10T18:30:28.127Z,1.22
2019-01-10T18:32:57.183Z,1.09
2019-01-10T18:35:26.752Z,1.16
2019-01-10T18:37:55.808Z,1.19
2019-01-10T18:40:26.917Z,1.31
2019-01-10T18:42:56.038Z,1.16
2019-01-10T18:45:27.588Z,1.03
2019-01-10T18:47:57.500Z,1.16
2019-01-10T18:50:26.632Z,1.05
2019-01-10T18:52:55.932Z,0.93
2019-01-10T18:55:25.049Z,0.94
2019-01-10T18:57:54.211Z,0.79
2019-01-10T19:00:25.427Z,0.69
2019-01-10T19:02:54.534Z,0.67
2019-01-10T19:05:23.586Z,0.70
2019-01-10T19:07:52.640Z,0.80
2019-01-10T19:10:21.954Z,0.81
2019-01-10T19:12:50.987Z,0.77
2019-01-10T19:15:20.024Z,0.97
2019-01-10T19:17:49.027Z,0.89
2019-01-10T19:20:20.349Z,0.89
2019-01-10T19:22:49.502Z,0.86
2019-01-10T19:25:18.627Z,1.08
2019-01-10T19:27:47.698Z,1.07
2019-01-10T19:30:18.971Z,0.83
2019-01-10T19:32:47.991Z,0.79
2019-01-10T19:35:17.077Z,0.74
2019-01-10T19:37:48.350Z,0.65
2019-01-10T19:40:18.619Z,0.47
2019-01-10T19:42:47.747Z,0.71
2019-01-10T19:45:17.916Z,0.78
2019-01-10T19:47:47.022Z,0.84
2019-01-10T19:50:18.689Z,0.85
2019-01-10T19:52:48.055Z,0.87
2019-01-10T19:55:17.747Z,0.89
2019-01-10T19:57:46.752Z,0.89
2019-01-10T20:00:43.058Z,0.91
2019-01-10T20:03:12.065Z,0.93
2019-01-10T20:05:41.159Z,0.92
2019-01-10T20:08:10.288Z,0.62
2019-01-10T20:10:39.307Z,0.66
2019-01-10T20:13:08.333Z,0.78
2019-01-10T20:15:37.431Z,0.79
2019-01-10T20:18:07.054Z,0.61
2019-01-10T20:20:38.398Z,0.68
2019-01-10T20:23:15.999Z,0.63
2019-01-10T20:25:46.020Z,0.51
2019-01-10T20:28:15.168Z,0.33
2019-01-10T20:30:45.379Z,0.38
2019-01-10T20:33:14.436Z,0.37
2019-01-10T20:35:45.349Z,0.36
2019-01-10T20:38:17.349Z,0.44
2019-01-10T20:40:48.746Z,0.34
2019-01-10T20:43:17.746Z,0.32
2019-01-10T20:46:17.518Z,0.27
2019-01-10T20:48:48.898Z,0.39
2019-01-10T20:51:19.052Z,0.24
2019-01-10T20:53:48.140Z,0.20
2019-01-10T20:56:17.296Z,0.26
2019-01-10T20:58:46.455Z,0.35
2019-01-10T21:01:15.625Z,0.41
2019-01-10T21:03:44.872Z,0.45
2019-01-10T21:06:14.730Z,0.43
2019-01-10T21:08:45.522Z,0.34
2019-01-10T21:11:15.910Z,0.38
2019-01-10T21:13:45.466Z,0.47
2019-01-10T21:16:15.256Z,0.46
2019-01-10T21:18:45.596Z,0.43
2019-01-10T21:21:14.970Z,0.00
2019-01-10T21:23:47.304Z,0.09
2019-01-10T21:26:16.328Z,-0.11
2019-01-10T21:28:48.085Z,0.10
2019-01-10T21:31:17.152Z,0.12
2019-01-10T21:33:46.189Z,0.08
2019-01-10T21:36:15.244Z,0.08
2019-01-10T21:38:44.486Z,-0.07
2019-01-10T21:41:13.557Z,-0.41
2019-01-10T21:43:42.691Z,-0.13
2019-01-10T21:46:11.797Z,-0.11
2019-01-10T21:48:40.841Z,-0.01
2019-01-10T21:51:09.954Z,0.11
2019-01-10T21:53:39.009Z,0.08
2019-01-10T21:56:10.451Z,-0.17
2019-01-10T21:58:39.545Z,0.03
2019-01-10T22:01:08.829Z,0.02
2019-01-10T22:03:38.183Z,0.11
2019-01-10T22:06:07.357Z,-0.11
2019-01-10T22:08:36.451Z,-0.07
2019-01-10T22:11:06.721Z,-0.26
2019-01-10T22:13:35.785Z,0.13
2019-01-10T22:16:05.434Z,0.06
2019-01-10T22:18:34.604Z,0.04
2019-01-10T22:21:04.793Z,0.07
2019-01-10T22:23:33.953Z,0.10
2019-01-10T22:26:03.117Z,0.24
2019-01-10T22:28:32.164Z,0.20
2019-01-10T22:31:01.244Z,0.27
2019-01-10T22:33:31.876Z,0.39
2019-01-10T22:36:02.065Z,0.37
2019-01-10T22:38:31.160Z,0.29
2019-01-10T22:41:02.533Z,0.21
2019-01-10T22:43:31.602Z,0.14
2019-01-10T22:46:00.654Z,0.13
2019-01-10T22:48:32.007Z,0.07
2019-01-10T22:51:02.379Z,0.07
2019-01-10T22:53:31.441Z,0.01
2019-01-10T22:56:00.831Z,0.00
2019-01-10T22:58:29.900Z,-0.01
2019-01-10T23:01:29.902Z,0.19
2019-01-10T23:03:59.303Z,0.26
2019-01-10T23:06:28.354Z,0.38
2019-01-10T23:08:58.720Z,0.32
2019-01-10T23:11:28.285Z,0.22
2019-01-10T23:14:01.644Z,-0.10
2019-01-10T23:16:32.396Z,0.23
2019-01-10T23:19:01.532Z,0.31
2019-01-10T23:21:32.168Z,0.38
2019-01-10T23:24:03.342Z,0.43
2019-01-10T23:26:32.413Z,0.24
2019-01-10T23:29:01.657Z,0.39
2019-01-10T23:31:30.710Z,0.15
2019-01-10T23:34:10.381Z,0.08
2019-01-10T23:36:39.397Z,-0.01
2019-01-10T23:39:16.822Z,0.01
2019-01-10T23:41:45.837Z,-0.29
2019-01-10T23:44:14.948Z,-0.15
2019-01-10T23:46:45.536Z,-0.08
2019-01-10T23:49:16.880Z,-0.11
2019-01-10T23:52:08.231Z,-0.28
2019-01-10T23:54:37.323Z,-0.26
2019-01-10T23:57:06.365Z,-0.06
2019-01-10T23:59:35.400Z,0.07
